Airfield :
LOGIN :

Register | Disclaimer

   EN    FR    IT 

 










Legend :    VFR   Marginal VFR   IFR   Intensive IFR   Very Intensive IFR
Visi :
Ceiling :
>= 8 km
>= 3000ft
5 to 8 km
1000 to 3000 ft
1500m to 5 km
500 to 1000 ft
800 to 1500m
200 to 500 ft
< 800m
< 200 ft
Symbols :   Thunderstorms  Fog  Heavy snow  Heavy precipitations  Wind > 20 kt
SIGMETs :     Misc.  Thunderstorms  Icing  Turbulence  Mountain Waves  Volcanic Ashes







- Airport Elevation : 1197 ft
- IATA code : SPM


ETAD - Spangdahlem Ab

CURRENT METAR :
  • 250556Z AUTO 00000KT 8000 BR OVC004 14/14 A3008 RMK AO2 CIG 002 RWY23 SLP172 T01400140 10141 20131 52007 $

EXPIRED METARs :
  • 250526Z AUTO 00000KT 9000 M OVC003 14/14 A3008 RMK AO2 CIG 002 RWY23 SLP172 $
  • 250511Z AUTO 00000KT 5000 BR OVC001 14/14 A3007 RMK AO2 VIS 3600 RWY05/23 SLP169 $
  • 250456Z AUTO 00000KT 2000 BR OVC001 14/14 A3007 RMK AO2 SLP169 T01400140 $
  • 250446Z AUTO 09003KT 1800 BR OVC001 14/14 A3007 RMK AO2 VIS 0600V1800 VIS 1000 RWY05/23 VIS 1000 RWY23 CIG 001V003 SLP167 $
  • 250440Z AUTO 00000KT 1200 R05/1400VP1500 BR VV001 14/14 A3007 RMK AO2 CIG 001V003 SLP167 $
  • 250431Z AUTO 00000KT 0600 R23/0900V1200 FG VV003 14/14 A3007 RMK AO2 CIG 001V003 CIG 001 RWY05 SLP167 $
  • 250416Z AUTO 08004KT 0800 R05/0900VP1500 FG VV001 14/14 A3006 RMK AO2 SLP162 $
  • 250356Z AUTO 05004KT 0400 R05/0650V1000 FG VV000 14/14 A3006 RMK AO2 SLP162 T01370137 $

TAF AMD TAF ETAD
Valid from the 25 at 05:00 until the 26 at 09:00 UTC


250554Z 2505/2609 VRB06KT 8000 BR OVC004 QNH3002INS
TEMPO 2505/2506 OVC007
BECMG 2507/2508 09009KT 9999 NSW SCT030 QNH3005INS
BECMG 2521/2522 06006KT 6000 BR SCT020 BKN030 QNH3006INS
BECMG 2602/2603 VRB06KT 3200 BR SCT025 QNH3008INS
BECMG 2607/2608 08009KT 9999 NSW FEW030 QNH3007INS TX25/2514Z TN11/2600Z
No reported NOTAMs for that airfield.



MET'MAP, your aeronautical weather chart ! - Copyright ORBIFLY December 2007 - Disclaimer

ORBIFLY MET'MAP TEAM :

Programming & Development : Alexandra Zaïnal
Concept & Development : Baudouin d'Aumeries
Co-Development & Prog : Marc-Olivier Méhu
Technical & hardware support : Manuel Goepfert

Contact : metmap@orbifly.com




SOURCES & CREDITS :

   NOAA